Latest Weather Observations for Lucinda

IDQ60801

Issued at 11:35 pm EST Saturday 1 November 2014 (issued every 30 minutes, with the page automatically refreshed every 10 minutes)

About weather observations | Map of weather stations | Latest weather observations for QLD | Other Formats
Station Details ID: 032141 Name: LUCINDA POINT Lat: -18.52 Lon: 146.39 Height: 10.0 m
Data from the previous 72 hours. | See also: Recent months for locations in Queensland
Date/Time
EST
Temp
°C
App
Temp
°C
Dew
Point
Rel
Hum
%
Delta-T
°C
Wind Press
QNH
hPa
Press
MSL
hPa
Rain
since 9 am
mm
Dir
 
Spd
km/h
Gust
km/h
Spd
kts
Gust
kts
01/11:30pm 25.2 24.8 19.3 70 3.8 N 20 28 11 15 1013.7 1013.6 0.0
01/11:00pm 25.2 24.7 19.1 69 3.9 N 20 26 11 14 1014.1 1014.0 0.0
01/10:30pm 25.3 24.1 19.2 69 3.9 N 24 30 13 16 1014.2 1014.1 0.0
01/10:00pm 25.3 24.2 19.4 70 3.8 N 24 30 13 16 1014.1 1014.0 0.0
01/09:30pm 25.1 23.9 19.2 70 3.8 N 24 28 13 15 1013.9 1013.8 0.0
01/09:00pm 25.1 23.4 19.0 69 3.9 N 26 32 14 17 1013.6 1013.5 0.0
01/08:30pm 25.1 23.0 19.0 69 3.9 N 28 33 15 18 1013.5 1013.4 0.0
01/08:00pm 25.1 23.8 19.0 69 3.9 N 24 32 13 17 1013.2 1013.1 0.0
01/07:30pm 25.2 23.4 19.6 71 3.6 N 28 32 15 17 1013.0 1012.9 0.0
01/07:00pm 25.0 22.9 18.9 69 3.9 N 28 33 15 18 1012.5 1012.4 0.0
01/06:30pm 25.0 22.8 18.7 68 4.0 N 28 32 15 17 1012.1 1012.0 0.0
01/06:00pm 25.2 23.0 18.6 67 4.2 NNE 28 32 15 17 1011.7 1011.6 0.0
01/05:30pm 25.6 23.9 19.7 70 3.8 NNE 28 33 15 18 1011.4 1011.3 0.0
01/05:00pm 25.1 22.0 18.5 67 4.2 NNE 32 35 17 19 1011.1 1011.0 0.0
01/04:30pm 25.0 21.8 18.2 66 4.3 NNE 32 35 17 19 1010.8 1010.7 0.0
01/04:00pm 25.0 22.6 18.2 66 4.3 NE 28 33 15 18 1010.7 1010.6 0.0
01/03:30pm 25.3 23.1 18.7 67 4.2 NE 28 30 15 16 1011.0 1010.9 0.0
01/03:00pm 25.5 23.9 18.4 65 4.5 ENE 24 30 13 16 1011.4 1011.3 0.0
01/02:30pm 25.1 23.4 18.1 65 4.4 ENE 24 30 13 16 1011.7 1011.6 0.0
01/02:00pm 25.1 22.7 18.3 66 4.3 NE 28 32 15 17 1011.9 1011.8 0.0
01/01:30pm 25.1 23.3 17.8 64 4.6 NE 24 28 13 15 1012.5 1012.4 0.0
01/01:00pm 25.1 23.8 18.1 65 4.4 NE 22 26 12 14 1013.1 1013.0 0.0
01/12:30pm 25.1 23.4 18.1 65 4.4 NE 24 28 13 15 1013.5 1013.4 0.0
01/12:00pm 25.1 23.3 17.8 64 4.6 NE 24 26 13 14 1014.1 1014.0 0.0
01/11:30am 25.2 23.5 18.2 65 4.4 NE 24 28 13 15 1014.4 1014.3 0.0
01/11:00am 25.3 24.6 18.7 67 4.2 NNE 20 24 11 13 1014.7 1014.6 0.0
01/10:30am 25.3 24.7 18.5 66 4.3 NE 19 22 10 12 1015.0 1014.9 0.0
01/10:00am 25.2 24.3 17.7 63 4.7 NE 19 20 10 11 1015.2 1015.1 0.0
01/09:30am 25.3 24.9 18.0 64 4.6 NE 17 20 9 11 1015.3 1015.3 0.0
01/09:00am 25.6 25.5 17.8 62 4.9 ENE 15 19 8 10 1015.4 1015.4 -
01/08:30am 25.4 24.9 17.8 62 4.8 NE 17 20 9 11 1015.2 1015.2 -
01/08:00am 25.2 24.7 17.9 64 4.6 NE 17 19 9 10 1015.0 1015.0 -
01/07:30am 25.2 24.7 17.7 63 4.7 NE 17 20 9 11 1014.5 1014.5 -
01/07:00am 25.0 24.1 17.7 64 4.6 NE 19 22 10 12 1014.2 1014.2 -
01/06:30am 24.7 24.2 17.9 66 4.3 NNE 17 20 9 11 1013.9 1013.9 -
01/06:00am 24.8 24.8 19.0 70 3.7 NE 17 20 9 11 1013.6 1013.6 -
01/05:30am 24.6 23.7 18.3 68 4.0 NE 20 22 11 12 1013.4 1013.4 -
01/05:00am 24.6 23.7 18.1 67 4.1 NE 20 24 11 13 1013.2 1013.2 -
01/04:30am 24.5 23.9 18.4 69 3.9 ENE 19 24 10 13 1012.8 1012.7 -
01/04:00am 24.6 24.2 18.8 70 3.7 NE 19 22 10 12 1012.6 1012.5 -
01/03:30am 24.6 24.4 18.5 69 3.9 ENE 17 22 9 12 1012.4 1012.3 -
01/03:00am 24.7 23.9 18.4 68 4.0 NE 20 22 11 12 1012.3 1012.2 -
01/02:30am 24.8 24.0 18.5 68 4.0 NE 20 24 11 13 1012.4 1012.3 -
01/02:00am 24.7 23.7 18.9 70 3.7 NE 22 26 12 14 1012.4 1012.3 -
01/01:00am 24.9 24.3 18.8 69 3.9 ENE 20 28 11 15 1013.0 1012.9 0.0
01/12:30am 25.0 24.8 19.4 71 3.6 ENE 19 24 10 13 1013.3 1013.3 0.0
01/12:00am 24.9 24.4 19.0 69 3.8 E 20 28 11 15 1013.7 1013.7 0.0
 
Date/Time
EST
Temp
°C
App
Temp
°C
Dew
Point
Rel
Hum
%
Delta-T
°C
Wind Press
QNH
hPa
Press
MSL
hPa
Rain
since 9 am
mm
Dir
 
Spd
km/h
Gust
km/h
Spd
kts
Gust
kts
31/11:30pm 25.1 25.0 19.5 71 3.6 ENE 19 24 10 13 1014.0 1014.0 0.0
31/11:00pm 25.1 24.6 19.2 70 3.8 ENE 20 24 11 13 1014.3 1014.3 0.0
31/10:30pm 25.0 24.5 19.1 70 3.8 ENE 20 26 11 14 1014.3 1014.3 0.0
31/10:00pm 25.0 24.4 18.9 69 3.9 ENE 20 28 11 15 1014.4 1014.4 0.0
31/09:30pm 25.1 24.7 19.0 69 3.9 ENE 19 26 10 14 1014.4 1014.4 0.0
31/09:00pm 25.2 24.7 19.1 69 3.9 NE 20 24 11 13 1014.2 1014.2 0.0
31/08:30pm 25.2 24.6 18.9 68 4.0 ENE 20 26 11 14 1013.8 1013.8 0.0
31/08:00pm 25.2 24.0 18.4 66 4.3 ENE 22 24 12 13 1013.4 1013.4 0.0
31/07:30pm 25.1 24.9 18.5 67 4.2 E 17 24 9 13 1013.1 1013.0 0.0
31/07:00pm 25.2 25.0 18.6 67 4.2 E 17 20 9 11 1012.8 1012.7 0.0
31/06:30pm 25.4 25.6 18.6 66 4.3 E 15 19 8 10 1012.7 1012.6 0.0
31/06:00pm 25.6 24.4 17.5 61 5.1 ENE 20 22 11 12 1012.4 1012.3 0.0
31/05:30pm 25.6 24.6 17.5 61 5.1 ENE 19 24 10 13 1012.1 1012.0 0.0
31/05:00pm 25.6 23.8 17.8 62 4.9 NE 24 28 13 15 1011.7 1011.6 0.0
31/04:30pm 25.8 24.9 18.2 63 4.8 ENE 20 26 11 14 1011.5 1011.4 0.0
31/04:00pm 25.9 24.8 17.8 61 5.1 ENE 20 26 11 14 1011.5 1011.4 0.0
31/03:30pm 25.6 24.1 17.8 62 4.9 NE 22 26 12 14 1011.6 1011.5 0.0
31/03:00pm 26.2 25.1 17.8 60 5.3 ENE 20 26 11 14 1011.6 1011.5 0.0
31/02:30pm 26.1 25.2 17.7 60 5.3 E 19 26 10 14 1011.8 1011.7 0.0
31/02:00pm 25.9 24.2 18.1 62 4.9 ENE 24 30 13 16 1011.9 1011.8 0.0
31/01:30pm 26.2 25.3 17.8 60 5.3 ENE 19 26 10 14 1012.1 1012.0 0.0
31/01:00pm 26.4 25.9 17.7 58 5.5 E 17 24 9 13 1012.7 1012.6 0.0
31/12:30pm 25.9 25.7 17.5 59 5.3 ENE 15 19 8 10 1013.3 1013.3 0.0
31/12:00pm 26.0 26.1 17.4 59 5.4 ENE 13 19 7 10 1013.9 1013.9 0.0
31/11:30am 25.6 25.4 17.5 61 5.1 NE 15 17 8 9 1014.6 1014.6 0.0
31/11:00am 25.8 26.1 16.9 58 5.5 NNE 11 15 6 8 1014.8 1014.8 0.0
31/10:30am 26.8 27.0 16.7 54 6.3 N 11 15 6 8 1015.0 1015.0 0.0
31/10:00am 26.3 26.4 16.5 54 6.0 N 11 15 6 8 1015.1 1015.1 0.0
31/09:30am 26.2 26.0 16.7 56 5.9 N 13 19 7 10 1015.2 1015.2 0.0
31/09:00am 26.4 26.0 17.2 57 5.7 N 15 20 8 11 1015.1 1015.1 0.0
31/08:30am 25.9 25.2 17.3 59 5.4 N 17 20 9 11 1014.8 1014.8 0.0
31/08:00am 25.4 24.8 17.6 62 4.9 NNE 17 20 9 11 1014.4 1014.4 0.0
31/07:30am 25.1 24.5 17.6 63 4.7 NNE 17 20 9 11 1014.1 1014.1 0.0
31/07:00am 25.2 24.3 17.7 63 4.7 NNE 19 22 10 12 1013.7 1013.7 0.0
31/06:30am 25.0 23.7 17.2 62 4.8 NNE 20 24 11 13 1013.5 1013.5 0.0
31/06:00am 24.8 23.7 17.8 65 4.4 NNE 20 26 11 14 1013.2 1013.2 0.0
31/05:30am 24.5 23.2 17.2 63 4.5 NNE 20 26 11 14 1013.1 1013.0 0.0
31/05:00am 24.6 22.9 17.3 64 4.5 NE 22 28 12 15 1012.8 1012.7 0.0
31/04:30am 24.6 22.5 17.1 63 4.6 NE 24 28 13 15 1012.6 1012.5 0.0
31/04:00am 24.6 22.3 17.6 65 4.4 NE 26 30 14 16 1012.4 1012.3 0.0
31/03:30am 24.6 22.4 17.8 66 4.3 NE 26 30 14 16 1012.2 1012.1 0.0
31/03:00am 24.6 23.5 17.8 66 4.3 NE 20 26 11 14 1012.1 1012.0 0.0
31/02:30am 24.7 24.2 18.6 69 3.9 NNE 19 22 10 12 1012.1 1012.0 0.0
31/02:00am 24.6 24.2 18.1 67 4.1 NE 17 20 9 11 1012.2 1012.1 0.0
31/01:30am 24.6 23.8 18.1 67 4.1 NNE 19 20 10 11 1012.6 1012.5 0.0
31/01:00am 24.9 23.8 18.6 68 4.0 NE 22 26 12 14 1013.0 1012.9 0.0
31/12:30am 24.8 23.3 17.8 65 4.4 NE 22 28 12 15 1013.2 1013.2 0.0
31/12:00am 24.8 23.6 18.3 67 4.1 NE 22 26 12 14 1013.5 1013.5 0.0
 
Date/Time
EST
Temp
°C
App
Temp
°C
Dew
Point
Rel
Hum
%
Delta-T
°C
Wind Press
QNH
hPa
Press
MSL
hPa
Rain
since 9 am
mm
Dir
 
Spd
km/h
Gust
km/h
Spd
kts
Gust
kts
30/11:30pm 24.8 23.8 18.0 66 4.3 NNE 20 24 11 13 1013.6 1013.6 0.0
30/11:00pm 24.8 24.2 18.5 68 4.0 NNE 19 22 10 12 1014.0 1014.0 0.0
30/10:30pm 24.9 24.1 18.1 66 4.3 NE 19 20 10 11 1014.1 1014.1 0.0
30/10:00pm 24.8 24.1 18.3 67 4.1 NE 19 20 10 11 1014.0 1014.0 0.0
30/09:30pm 24.8 24.0 18.0 66 4.3 NE 19 20 10 11 1013.9 1013.9 0.0
30/09:00pm 24.8 23.9 18.3 67 4.1 NE 20 24 11 13 1013.6 1013.6 0.0
30/08:30pm 24.8 23.9 18.3 67 4.1 NE 20 24 11 13 1013.3 1013.3 0.0
30/08:00pm 24.8 23.9 18.3 67 4.1 NE 20 24 11 13 1013.0 1012.9 0.0
30/07:30pm 24.9 23.4 17.6 64 4.6 NE 22 24 12 13 1012.8 1012.7 0.0
30/07:00pm 24.9 23.4 17.6 64 4.6 NE 22 26 12 14 1012.6 1012.5 0.0
30/06:30pm 24.9 23.9 17.9 65 4.4 NE 20 24 11 13 1012.2 1012.1 0.0
30/06:00pm 25.0 24.0 18.0 65 4.4 ENE 20 24 11 13 1012.0 1011.9 0.0
30/05:30pm 25.2 23.6 17.4 62 4.9 ENE 22 26 12 14 1011.5 1011.4 0.0
30/05:00pm 25.5 23.7 17.9 63 4.8 NE 24 26 13 14 1011.4 1011.3 0.0
30/04:30pm 25.4 23.4 17.3 61 5.0 ENE 24 28 13 15 1011.4 1011.3 0.0
30/04:00pm 25.3 22.5 17.2 61 5.0 NE 28 30 15 16 1011.3 1011.2 0.0
30/03:30pm 25.3 23.0 17.7 62 4.8 NNE 26 30 14 16 1011.2 1011.1 0.0
30/03:00pm 25.7 23.8 17.6 61 5.1 NNE 24 32 13 17 1011.3 1011.2 0.0
30/02:30pm 25.7 24.1 17.4 60 5.2 NNE 22 28 12 15 1011.5 1011.4 0.0
30/02:00pm 26.1 24.6 17.7 60 5.3 N 22 28 12 15 1011.8 1011.7 0.0
30/01:30pm 25.7 23.9 17.9 62 4.9 NNE 24 28 13 15 1012.1 1012.0 0.0
30/01:00pm 25.9 25.0 18.1 62 4.9 NNE 20 26 11 14 1012.6 1012.5 0.0
30/12:30pm 26.1 25.2 18.2 61 5.0 N 20 26 11 14 - 1008.3 0.0
30/12:00pm 26.5 26.3 18.4 61 5.1 N 17 22 9 12 1013.9 1013.9 0.0
30/11:30am 26.1 26.4 18.8 64 4.7 NNE 15 19 8 10 1014.5 1014.5 0.0
30/11:00am 25.3 25.3 18.0 64 4.6 NE 15 19 8 10 1014.9 1014.9 0.0
30/10:30am 25.2 25.2 18.2 65 4.4 NE 15 19 8 10 1015.0 1015.0 0.0
30/10:00am 25.8 25.9 17.4 59 5.2 ENE 13 19 7 10 1015.1 1015.1 0.0
30/09:30am 26.2 26.4 17.6 59 5.4 ENE 13 19 7 10 1015.2 1015.2 0.0
30/09:00am 26.2 26.8 18.6 63 4.8 E 13 17 7 9 1015.6 1015.6 0.0
30/08:30am 25.5 26.3 18.2 64 4.6 ESE 11 19 6 10 1015.8 1015.8 0.0
30/08:00am 25.7 27.9 19.1 67 4.2 SW 6 9 3 5 1015.5 1015.5 0.0
30/07:30am 24.1 26.1 20.0 78 2.6 SW 9 13 5 7 1015.3 1015.3 0.0
30/07:00am 23.5 24.5 20.2 82 2.1 SSW 15 19 8 10 1015.0 1015.0 0.0
30/06:30am 22.6 23.2 21.1 91 1.0 SSW 19 20 10 11 1014.6 1014.6 0.0
30/06:00am 22.1 23.2 20.4 90 1.1 SSW 15 17 8 9 1014.1 1014.1 0.0
30/05:30am 22.3 23.1 20.6 90 1.1 WSW 17 19 9 10 1013.1 1013.0 0.0
30/05:00am 22.7 24.1 20.4 87 1.5 WSW 13 17 7 9 1012.7 1012.6 0.0
30/04:30am 23.2 24.2 19.4 79 2.4 WSW 13 15 7 8 1012.4 1012.3 0.0
30/04:00am 24.4 25.2 19.0 72 3.4 NW 13 20 7 11 1012.2 1012.1 0.0
30/03:30am 24.4 23.7 18.6 70 3.7 NNW 20 28 11 15 1012.0 1011.9 0.0
30/03:00am 24.6 23.4 18.5 69 3.9 N 22 26 12 14 1011.9 1011.8 0.0
30/02:30am 24.6 24.0 18.8 70 3.7 N 20 26 11 14 1011.9 1011.8 0.0
30/02:00am 24.5 23.3 18.4 69 3.9 NNW 22 26 12 14 1012.2 1012.1 0.0
30/01:30am 24.6 23.9 19.4 73 3.3 NNW 22 26 12 14 1012.2 1012.1 0.0
30/01:00am 24.4 23.9 19.0 72 3.4 N 20 26 11 14 1012.5 1012.4 0.0
30/12:30am 24.5 23.7 19.3 73 3.3 NNW 22 28 12 15 1012.4 1012.3 0.0
30/12:00am 24.4 24.0 19.0 72 3.4 NNW 19 26 10 14 1012.9 1012.8 0.0

Other Formats:

Comma delimited format used in spreadsheet applications
http://www.bom.gov.au/fwo/IDQ60801/IDQ60801.94295.axf

JavaScript Object Notation format (JSON) in row-major order
http://www.bom.gov.au/fwo/IDQ60801/IDQ60801.94295.json